Strona główna
METAR-TAF:

METAR-TAF

Lotnisko :

Penn Valley Airport

Selinsgrove, Pensylwania, Stany Zjednoczone

Szerokość geograficzna: 40-49-09N, Długość geograficzna: 076-51-58W, wysokość: 137 m

Aktualna obserwacja pogody

Raport powstał 36 minut temu, godzina 02:53 UTC
Wiatr 4 kt od północ
Temperatura 8°C
Wilgotność 71%
Ciśnienie 1015 hPa
Widzialność: 16.1 km
Przerywane chmury na wysokości 3300 ft
Przerywane chmury na wysokości 5500 ft
Zachmurzenie całkowite na wysokości 8000 ft

METAR: KSEG 040253Z AUTO 36004KT 10SM BKN033 BKN055 OVC080 08/03 A2997 RMK AO2 SLP151 T00780028 51012

czas: 23:29 (03:29 UTC)


TAF: brakujący

Obserwacja i prognoza pogody dla ponad 4000 lotnisk (raport METAR i TAF).

Dostępne stacje oznaczono żółtymi i czerwonymi punktami na mapie.

Najedź kursorem aby zobaczyć nazwę stacji.

Kliknij aby zobaczyć obserwacje i prognozy pogody.

Aby zmienić mapę: kliknij na zielony przycisk z czarnym krzyżykiem, aby powiększyć; na zielony przycisk z myślnikiem, aby pomniejszyć; na zielone strzałki, aby przejść do map sąsiednich.


METAR-TAF: